Time;durP1;ratioP1;P1;durP2;ratioP2;P2;SDS_P1;SDS_P2;PMS_P1;PMS_P2;Temp;Humidity;BMP_temperature;BMP_pressure;BME280_temperature;BME280_humidity;BME280_pressure;Samples;Min_cycle;Max_cycle;Signal;HPM_P1;HPM_P2
2022/04/15 00:00:15;;;;;;;;;;;21.50;37.90;;;;;;491188;243;1051;-40
2022/04/15 00:02:17;;;;;;;;;;;21.50;37.80;;;;;;490711;243;1004;-40
2022/04/15 00:04:17;;;;;;;;;;;21.50;37.80;;;;;;491134;242;2074;-40
2022/04/15 00:06:19;;;;;;;;;;;21.50;37.80;;;;;;491142;242;1059;-40
2022/04/15 00:08:20;;;;;;;;;;;21.50;37.80;;;;;;491189;242;1355;-39
2022/04/15 00:10:22;;;;;;;;;;;21.50;37.80;;;;;;491222;242;2109;-40
2022/04/15 00:12:28;;;;;;;;;;;21.50;37.80;;;;;;491100;242;1555;-40
2022/04/15 00:14:29;;;;;;;;;;;21.50;37.80;;;;;;485466;242;1372;-40
2022/04/15 00:16:30;;;;;;;;;;;21.40;37.90;;;;;;490051;242;1142;-40
2022/04/15 00:18:32;;;;;;;;;;;21.40;37.90;;;;;;491143;242;1040;-40
2022/04/15 00:20:33;;;;;;;;;;;21.50;37.90;;;;;;491174;242;1096;-40
2022/04/15 00:22:34;;;;;;;;;;;21.50;37.80;;;;;;491158;242;1062;-40
2022/04/15 00:24:36;;;;;;;;;;;21.50;37.90;;;;;;491221;242;943;-39
2022/04/15 00:26:37;;;;;;;;;;;21.50;37.80;;;;;;491150;242;1207;-40
2022/04/15 00:28:38;;;;;;;;;;;21.50;37.90;;;;;;490761;242;1177;-40
2022/04/15 00:30:40;;;;;;;;;;;21.50;37.90;;;;;;491170;242;2114;-39
2022/04/15 00:32:41;;;;;;;;;;;21.50;37.80;;;;;;491157;242;1064;-40
2022/04/15 00:34:43;;;;;;;;;;;21.50;37.90;;;;;;490734;242;1063;-39
2022/04/15 00:36:44;;;;;;;;;;;21.50;37.80;;;;;;490672;242;1126;-40
2022/04/15 00:38:45;;;;;;;;;;;21.50;37.80;;;;;;491192;242;1030;-40
2022/04/15 00:40:47;;;;;;;;;;;21.50;37.90;;;;;;491203;242;1049;-40
2022/04/15 00:42:48;;;;;;;;;;;21.50;37.90;;;;;;491146;242;1193;-40
2022/04/15 00:44:49;;;;;;;;;;;21.50;37.90;;;;;;490809;242;1209;-40
2022/04/15 00:46:51;;;;;;;;;;;21.50;38.00;;;;;;491186;242;1079;-40
2022/04/15 00:48:52;;;;;;;;;;;21.50;38.00;;;;;;490974;242;1055;-40
2022/04/15 00:50:53;;;;;;;;;;;21.40;38.00;;;;;;491193;242;2141;-40
2022/04/15 00:52:55;;;;;;;;;;;21.50;37.90;;;;;;490762;242;1393;-40
2022/04/15 00:54:56;;;;;;;;;;;21.50;38.00;;;;;;491212;242;1312;-40
2022/04/15 00:56:58;;;;;;;;;;;21.50;38.00;;;;;;491177;242;1063;-40
2022/04/15 00:58:59;;;;;;;;;;;21.50;37.90;;;;;;491166;242;1181;-40
2022/04/15 01:01:00;;;;;;;;;;;21.50;37.90;;;;;;490707;242;1086;-40
2022/04/15 01:03:01;;;;;;;;;;;21.50;38.00;;;;;;491200;242;1020;-40
2022/04/15 01:05:03;;;;;;;;;;;21.50;38.00;;;;;;491231;242;1038;-39
2022/04/15 01:07:04;;;;;;;;;;;21.60;37.90;;;;;;491019;243;1046;-40
2022/04/15 01:09:05;;;;;;;;;;;21.50;37.90;;;;;;491211;242;999;-40
2022/04/15 01:11:07;;;;;;;;;;;21.50;37.90;;;;;;491184;242;2188;-39
2022/04/15 01:13:08;;;;;;;;;;;21.50;37.90;;;;;;491200;242;1067;-40
2022/04/15 01:15:09;;;;;;;;;;;21.50;37.90;;;;;;490957;242;1260;-40
2022/04/15 01:17:10;;;;;;;;;;;21.50;38.00;;;;;;491147;242;2403;-40
2022/04/15 01:19:12;;;;;;;;;;;21.50;37.90;;;;;;490753;242;1069;-39
2022/04/15 01:21:13;;;;;;;;;;;21.50;38.00;;;;;;491152;242;1140;-39
2022/04/15 01:23:14;;;;;;;;;;;21.50;38.00;;;;;;490741;242;1076;-40
2022/04/15 01:25:16;;;;;;;;;;;21.50;38.10;;;;;;491197;242;1076;-40
2022/04/15 01:27:17;;;;;;;;;;;21.50;38.00;;;;;;491130;242;1032;-40
2022/04/15 01:29:18;;;;;;;;;;;21.50;38.00;;;;;;491178;242;1166;-40
2022/04/15 01:31:20;;;;;;;;;;;21.50;38.00;;;;;;490685;242;2184;-40
2022/04/15 01:33:21;;;;;;;;;;;21.50;38.00;;;;;;490794;242;1284;-40
2022/04/15 01:35:22;;;;;;;;;;;21.50;38.00;;;;;;490764;242;1073;-40
2022/04/15 01:37:24;;;;;;;;;;;21.50;38.00;;;;;;490950;242;1384;-40
2022/04/15 01:39:25;;;;;;;;;;;21.50;38.10;;;;;;490939;242;1114;-40
2022/04/15 01:41:26;;;;;;;;;;;21.50;38.00;;;;;;490639;242;1049;-40
2022/04/15 01:43:28;;;;;;;;;;;21.50;38.00;;;;;;491192;242;1378;-40
2022/04/15 01:45:29;;;;;;;;;;;21.50;38.10;;;;;;490978;242;1177;-40
2022/04/15 01:47:30;;;;;;;;;;;21.40;38.00;;;;;;491030;242;1057;-40
2022/04/15 01:49:32;;;;;;;;;;;21.50;38.00;;;;;;491192;242;2110;-40
2022/04/15 01:51:33;;;;;;;;;;;21.50;38.00;;;;;;490678;242;1032;-40
2022/04/15 01:53:34;;;;;;;;;;;21.50;38.00;;;;;;490729;242;1435;-40
2022/04/15 01:55:35;;;;;;;;;;;21.50;38.00;;;;;;491201;242;1337;-39
2022/04/15 01:57:37;;;;;;;;;;;21.50;37.90;;;;;;490701;242;1044;-40
2022/04/15 01:59:38;;;;;;;;;;;21.50;38.00;;;;;;491171;242;1148;-40
2022/04/15 02:01:39;;;;;;;;;;;21.50;38.00;;;;;;491089;242;1041;-40
2022/04/15 02:03:41;;;;;;;;;;;21.50;38.00;;;;;;491159;242;1078;-40
2022/04/15 02:05:42;;;;;;;;;;;21.50;38.10;;;;;;491195;242;1259;-40
2022/04/15 02:07:43;;;;;;;;;;;21.50;38.10;;;;;;491180;242;1046;-40
2022/04/15 02:09:45;;;;;;;;;;;21.50;38.10;;;;;;491186;242;2193;-40
2022/04/15 02:11:46;;;;;;;;;;;21.50;38.10;;;;;;491142;242;1029;-40
2022/04/15 02:13:47;;;;;;;;;;;21.50;38.10;;;;;;491194;242;1056;-40
2022/04/15 02:15:49;;;;;;;;;;;21.50;38.10;;;;;;490924;242;1333;-40
2022/04/15 02:17:50;;;;;;;;;;;21.50;38.10;;;;;;491131;242;1182;-40
2022/04/15 02:19:52;;;;;;;;;;;21.50;38.20;;;;;;490703;242;1183;-40
2022/04/15 02:21:53;;;;;;;;;;;21.50;38.10;;;;;;490308;242;1434;-39
2022/04/15 02:23:54;;;;;;;;;;;21.50;38.10;;;;;;490274;243;973;-40
2022/04/15 02:25:55;;;;;;;;;;;21.40;38.10;;;;;;490265;243;1031;-40
2022/04/15 02:27:57;;;;;;;;;;;21.50;38.10;;;;;;490711;243;1022;-40
2022/04/15 02:29:58;;;;;;;;;;;21.50;38.10;;;;;;490514;243;2179;-40
2022/04/15 02:32:00;;;;;;;;;;;21.50;38.10;;;;;;489679;242;1262;-40
2022/04/15 02:34:01;;;;;;;;;;;21.50;38.20;;;;;;490689;242;1080;-40
2022/04/15 02:36:02;;;;;;;;;;;21.50;38.20;;;;;;490729;242;1283;-40
2022/04/15 02:38:04;;;;;;;;;;;21.40;38.20;;;;;;490754;242;1112;-40
2022/04/15 02:40:06;;;;;;;;;;;21.50;38.20;;;;;;491209;242;1226;-40
2022/04/15 02:42:06;;;;;;;;;;;21.50;38.20;;;;;;491125;242;2246;-40
2022/04/15 02:44:08;;;;;;;;;;;21.50;38.20;;;;;;491239;242;1022;-40
2022/04/15 02:46:09;;;;;;;;;;;21.50;38.10;;;;;;490735;242;1187;-40
2022/04/15 02:48:11;;;;;;;;;;;21.50;38.20;;;;;;490694;242;1638;-40
2022/04/15 02:50:12;;;;;;;;;;;21.50;38.20;;;;;;491190;242;2173;-40
2022/04/15 02:52:13;;;;;;;;;;;21.50;38.20;;;;;;490851;242;1215;-40
2022/04/15 02:54:15;;;;;;;;;;;21.50;38.20;;;;;;491210;242;1391;-40
2022/04/15 02:56:16;;;;;;;;;;;21.50;38.10;;;;;;491193;242;1116;-40
2022/04/15 02:58:17;;;;;;;;;;;21.50;38.10;;;;;;491229;242;1030;-40
2022/04/15 03:00:19;;;;;;;;;;;21.50;38.10;;;;;;490731;242;1065;-40
2022/04/15 03:02:20;;;;;;;;;;;21.60;38.10;;;;;;490752;242;1137;-40
2022/04/15 03:04:22;;;;;;;;;;;21.50;38.20;;;;;;491214;242;1186;-40
2022/04/15 03:06:23;;;;;;;;;;;21.50;38.20;;;;;;490715;242;1298;-40
2022/04/15 03:08:24;;;;;;;;;;;21.50;38.20;;;;;;491195;242;994;-40
2022/04/15 03:10:26;;;;;;;;;;;21.50;38.20;;;;;;491086;242;2114;-40
2022/04/15 03:12:27;;;;;;;;;;;21.50;38.20;;;;;;491141;242;1070;-40
2022/04/15 03:14:28;;;;;;;;;;;21.50;38.20;;;;;;490760;242;1093;-40
2022/04/15 03:16:30;;;;;;;;;;;21.50;38.20;;;;;;490951;242;1328;-39
2022/04/15 03:18:31;;;;;;;;;;;21.40;38.20;;;;;;491169;242;1077;-40
2022/04/15 03:20:32;;;;;;;;;;;21.50;38.20;;;;;;491207;242;1325;-40
2022/04/15 03:22:34;;;;;;;;;;;21.40;38.30;;;;;;491158;242;1066;-40
2022/04/15 03:24:35;;;;;;;;;;;21.50;38.30;;;;;;490767;242;1050;-40
2022/04/15 03:26:36;;;;;;;;;;;21.40;38.30;;;;;;490705;243;1099;-40
2022/04/15 03:28:39;;;;;;;;;;;21.50;38.30;;;;;;490777;242;1240;-40
2022/04/15 03:30:39;;;;;;;;;;;21.50;38.30;;;;;;490681;243;2188;-40
2022/04/15 03:32:40;;;;;;;;;;;21.50;38.20;;;;;;490739;242;1220;-40
2022/04/15 03:34:42;;;;;;;;;;;21.40;38.20;;;;;;490748;242;1081;-40
2022/04/15 03:36:45;;;;;;;;;;;21.50;38.30;;;;;;491150;242;1068;-40
2022/04/15 03:38:44;;;;;;;;;;;21.50;38.20;;;;;;490637;242;2226;-40
2022/04/15 03:40:46;;;;;;;;;;;21.50;38.20;;;;;;491192;242;1101;-40
2022/04/15 03:42:47;;;;;;;;;;;21.50;38.20;;;;;;490697;242;1115;-40
2022/04/15 03:44:49;;;;;;;;;;;21.50;38.20;;;;;;490724;242;1046;-40
2022/04/15 03:46:50;;;;;;;;;;;21.60;38.20;;;;;;490937;242;1215;-39
2022/04/15 03:48:51;;;;;;;;;;;21.50;38.20;;;;;;491066;242;1078;-40
2022/04/15 03:50:53;;;;;;;;;;;21.50;38.20;;;;;;491185;242;2110;-40
2022/04/15 03:52:54;;;;;;;;;;;21.50;38.20;;;;;;490750;242;1322;-39
2022/04/15 03:54:55;;;;;;;;;;;21.50;38.20;;;;;;491202;242;1066;-39
2022/04/15 03:56:57;;;;;;;;;;;21.50;38.10;;;;;;491150;242;1083;-40
2022/04/15 03:58:58;;;;;;;;;;;21.50;38.20;;;;;;491227;242;950;-39
2022/04/15 04:00:59;;;;;;;;;;;21.50;38.10;;;;;;491091;242;1154;-40
2022/04/15 04:03:00;;;;;;;;;;;21.50;38.20;;;;;;487979;243;1158;-40
2022/04/15 04:05:02;;;;;;;;;;;21.50;38.20;;;;;;488376;243;1115;-40
2022/04/15 04:07:03;;;;;;;;;;;21.50;38.20;;;;;;488338;243;1042;-40
2022/04/15 04:09:04;;;;;;;;;;;21.50;38.20;;;;;;488395;243;1056;-40
2022/04/15 04:11:06;;;;;;;;;;;21.50;38.30;;;;;;487890;243;2179;-40
2022/04/15 04:13:07;;;;;;;;;;;21.40;38.20;;;;;;488351;243;1213;-39
2022/04/15 04:15:08;;;;;;;;;;;21.40;38.20;;;;;;488360;243;1232;-40
2022/04/15 04:17:10;;;;;;;;;;;21.40;38.20;;;;;;488108;243;1261;-40
2022/04/15 04:19:11;;;;;;;;;;;21.50;38.20;;;;;;488364;243;1376;-40
2022/04/15 04:21:12;;;;;;;;;;;21.50;38.20;;;;;;487884;243;1046;-40
2022/04/15 04:23:14;;;;;;;;;;;21.50;38.20;;;;;;487935;243;1059;-39
2022/04/15 04:25:15;;;;;;;;;;;21.50;38.20;;;;;;488390;243;962;-40
2022/04/15 04:27:16;;;;;;;;;;;21.50;38.20;;;;;;488306;243;1059;-39
2022/04/15 04:29:18;;;;;;;;;;;21.50;38.20;;;;;;488241;243;1054;-39
2022/04/15 04:31:20;;;;;;;;;;;21.50;38.20;;;;;;487860;243;2111;-40
2022/04/15 04:33:20;;;;;;;;;;;21.50;38.20;;;;;;487903;243;2032;-40
2022/04/15 04:35:22;;;;;;;;;;;21.50;38.20;;;;;;488370;243;1047;-39
2022/04/15 04:37:23;;;;;;;;;;;21.50;38.30;;;;;;488331;243;1072;-40
2022/04/15 04:39:26;;;;;;;;;;;21.50;38.20;;;;;;488369;243;1081;-40
2022/04/15 04:41:25;;;;;;;;;;;21.50;38.30;;;;;;488250;243;2136;-40
2022/04/15 04:43:27;;;;;;;;;;;21.50;38.20;;;;;;487915;243;1076;-40
2022/04/15 04:45:28;;;;;;;;;;;21.50;38.20;;;;;;488383;243;1061;-40
2022/04/15 04:47:29;;;;;;;;;;;21.50;38.20;;;;;;488153;243;1087;-40
2022/04/15 04:49:31;;;;;;;;;;;21.50;38.20;;;;;;488360;243;1056;-40
2022/04/15 04:51:32;;;;;;;;;;;21.60;38.10;;;;;;488315;243;2123;-40
2022/04/15 04:53:33;;;;;;;;;;;21.60;38.20;;;;;;488388;243;920;-40
2022/04/15 04:55:35;;;;;;;;;;;21.50;38.20;;;;;;488364;243;1257;-40
2022/04/15 04:57:37;;;;;;;;;;;21.60;38.10;;;;;;488360;243;1066;-40
2022/04/15 04:59:37;;;;;;;;;;;21.60;38.10;;;;;;488346;243;1485;-40
2022/04/15 05:01:39;;;;;;;;;;;21.50;38.20;;;;;;488288;243;1043;-40
2022/04/15 05:03:40;;;;;;;;;;;21.50;38.20;;;;;;487928;243;1181;-40
2022/04/15 05:05:41;;;;;;;;;;;21.50;38.20;;;;;;488374;243;1058;-40
2022/04/15 05:07:42;;;;;;;;;;;21.50;38.10;;;;;;487842;243;1214;-40
2022/04/15 05:09:44;;;;;;;;;;;21.60;38.20;;;;;;488162;243;1067;-40
2022/04/15 05:11:45;;;;;;;;;;;21.60;38.20;;;;;;487906;243;2186;-40
2022/04/15 05:13:46;;;;;;;;;;;21.50;38.10;;;;;;487908;243;1057;-40
2022/04/15 05:15:48;;;;;;;;;;;21.50;38.20;;;;;;488356;243;1023;-40
2022/04/15 05:17:49;;;;;;;;;;;21.50;38.20;;;;;;487877;243;1381;-40
2022/04/15 05:19:50;;;;;;;;;;;21.50;38.20;;;;;;488388;243;1017;-40
2022/04/15 05:21:52;;;;;;;;;;;21.50;38.20;;;;;;488315;243;1010;-40
2022/04/15 05:23:53;;;;;;;;;;;21.50;38.20;;;;;;488367;243;2452;-39
2022/04/15 05:25:55;;;;;;;;;;;21.50;38.20;;;;;;488211;243;1032;-40
2022/04/15 05:27:58;;;;;;;;;;;21.50;38.20;;;;;;488374;243;1081;-40
2022/04/15 05:29:58;;;;;;;;;;;21.50;38.30;;;;;;488345;243;2350;-40
2022/04/15 05:31:59;;;;;;;;;;;21.50;38.30;;;;;;488345;243;2126;-39
2022/04/15 05:34:01;;;;;;;;;;;21.50;38.30;;;;;;487928;243;2193;-39
2022/04/15 05:36:02;;;;;;;;;;;21.50;38.20;;;;;;488339;243;1079;-40
2022/04/15 05:38:07;;;;;;;;;;;21.50;38.40;;;;;;487889;243;1068;-40
2022/04/15 05:40:05;;;;;;;;;;;21.50;38.20;;;;;;487320;244;2247;-40
2022/04/15 05:42:06;;;;;;;;;;;21.50;38.20;;;;;;487915;244;1050;-40
2022/04/15 05:44:08;;;;;;;;;;;21.50;38.30;;;;;;488193;244;1098;-40
2022/04/15 05:46:09;;;;;;;;;;;21.50;38.40;;;;;;488312;243;2327;-40
2022/04/15 05:48:10;;;;;;;;;;;21.50;38.30;;;;;;488110;243;1216;-40
2022/04/15 05:50:12;;;;;;;;;;;21.50;38.30;;;;;;488384;243;1007;-40
2022/04/15 05:52:14;;;;;;;;;;;21.50;38.30;;;;;;488337;243;2118;-39
2022/04/15 05:54:14;;;;;;;;;;;21.50;38.20;;;;;;488321;243;2400;-40
2022/04/15 05:56:15;;;;;;;;;;;21.50;38.30;;;;;;488343;243;1085;-40
2022/04/15 05:58:17;;;;;;;;;;;21.50;38.20;;;;;;488268;243;1270;-40
2022/04/15 06:00:18;;;;;;;;;;;21.50;38.20;;;;;;487433;244;1099;-40
2022/04/15 06:02:19;;;;;;;;;;;21.50;38.20;;;;;;488567;243;1325;-40
2022/04/15 06:04:21;;;;;;;;;;;21.50;38.30;;;;;;490746;242;1042;-40
2022/04/15 06:06:22;;;;;;;;;;;21.50;38.30;;;;;;491190;242;1225;-40
2022/04/15 06:08:23;;;;;;;;;;;21.60;38.40;;;;;;491203;242;1086;-40
2022/04/15 06:10:25;;;;;;;;;;;21.50;38.30;;;;;;490729;242;1043;-39
2022/04/15 06:12:42;;;;;;;;;;;21.60;38.30;;;;;;491128;242;2109;-40
2022/04/15 06:14:30;;;;;;;;;;;21.50;38.40;;;;;;489460;242;1944;-39
2022/04/15 06:16:32;;;;;;;;;;;21.50;38.40;;;;;;490896;242;2384;-40
2022/04/15 06:18:34;;;;;;;;;;;21.60;38.50;;;;;;490536;243;1434;-40
2022/04/15 06:20:32;;;;;;;;;;;21.50;38.50;;;;;;490458;242;1944;-40
2022/04/15 06:22:33;;;;;;;;;;;21.50;38.60;;;;;;491192;242;1042;-40
2022/04/15 06:24:34;;;;;;;;;;;21.50;38.60;;;;;;490740;242;1075;-40
2022/04/15 06:26:36;;;;;;;;;;;21.50;38.50;;;;;;489897;242;1014;-39
2022/04/15 06:28:37;;;;;;;;;;;21.50;38.60;;;;;;490752;242;1228;-40
2022/04/15 06:30:38;;;;;;;;;;;21.60;38.70;;;;;;490736;242;1069;-40
2022/04/15 06:32:40;;;;;;;;;;;21.50;38.70;;;;;;491140;242;2137;-40
2022/04/15 06:34:41;;;;;;;;;;;21.50;38.70;;;;;;490761;242;1245;-40
2022/04/15 06:36:42;;;;;;;;;;;21.50;38.70;;;;;;491265;242;1296;-39
2022/04/15 06:38:43;;;;;;;;;;;21.50;38.80;;;;;;491183;242;1355;-40
2022/04/15 06:40:45;;;;;;;;;;;21.50;38.80;;;;;;491189;242;1055;-40
2022/04/15 06:42:46;;;;;;;;;;;21.50;38.80;;;;;;491154;242;1234;-39
2022/04/15 06:44:47;;;;;;;;;;;21.50;38.90;;;;;;490742;242;1076;-40
2022/04/15 06:46:49;;;;;;;;;;;21.50;38.90;;;;;;490719;242;1074;-40
2022/04/15 06:48:50;;;;;;;;;;;21.50;38.90;;;;;;490875;242;1135;-39
2022/04/15 06:50:53;;;;;;;;;;;21.50;38.90;;;;;;490718;242;1426;-40
2022/04/15 06:52:53;;;;;;;;;;;21.50;38.90;;;;;;490577;242;2117;-40
2022/04/15 06:54:54;;;;;;;;;;;21.50;39.00;;;;;;490278;242;1056;-40
2022/04/15 06:56:55;;;;;;;;;;;21.50;38.90;;;;;;490937;242;971;-40
2022/04/15 06:58:57;;;;;;;;;;;21.60;39.00;;;;;;490709;242;1066;-40
2022/04/15 07:00:58;;;;;;;;;;;21.50;39.00;;;;;;491136;242;1379;-40
2022/04/15 07:02:59;;;;;;;;;;;21.50;39.00;;;;;;490692;242;1026;-39
2022/04/15 07:05:01;;;;;;;;;;;21.50;39.00;;;;;;490752;242;1168;-40
2022/04/15 07:07:02;;;;;;;;;;;21.60;39.10;;;;;;491182;242;1049;-40
2022/04/15 07:09:03;;;;;;;;;;;21.60;39.10;;;;;;491185;242;1039;-39
2022/04/15 07:11:05;;;;;;;;;;;21.50;39.10;;;;;;491178;242;1077;-40
2022/04/15 07:13:06;;;;;;;;;;;21.50;39.10;;;;;;491163;242;2113;-39
2022/04/15 07:15:07;;;;;;;;;;;21.50;39.20;;;;;;490862;242;1110;-40
2022/04/15 07:17:08;;;;;;;;;;;21.50;39.20;;;;;;491154;242;1705;-40
2022/04/15 07:19:10;;;;;;;;;;;21.50;39.20;;;;;;490967;242;1182;-39
2022/04/15 07:21:11;;;;;;;;;;;21.50;39.20;;;;;;491148;242;1038;-40
2022/04/15 07:23:12;;;;;;;;;;;21.50;39.20;;;;;;490949;242;1001;-40
2022/04/15 07:25:14;;;;;;;;;;;21.50;39.30;;;;;;491207;242;1082;-40
2022/04/15 07:27:15;;;;;;;;;;;21.50;39.30;;;;;;491153;242;1204;-40
2022/04/15 07:29:16;;;;;;;;;;;21.50;39.30;;;;;;491229;242;1037;-39
2022/04/15 07:31:18;;;;;;;;;;;21.50;39.40;;;;;;491116;242;1081;-40
2022/04/15 07:33:19;;;;;;;;;;;21.50;39.40;;;;;;491182;242;2129;-40
2022/04/15 07:35:20;;;;;;;;;;;21.50;39.40;;;;;;490788;242;1164;-40
2022/04/15 07:37:22;;;;;;;;;;;21.50;39.40;;;;;;491127;242;1059;-40
2022/04/15 07:39:24;;;;;;;;;;;21.50;39.50;;;;;;490742;242;1266;-40
2022/04/15 07:41:25;;;;;;;;;;;21.50;39.40;;;;;;490733;242;1059;-40
2022/04/15 07:43:26;;;;;;;;;;;21.50;39.40;;;;;;490736;242;1123;-39
2022/04/15 07:45:28;;;;;;;;;;;21.50;39.40;;;;;;490904;242;1046;-40
2022/04/15 07:47:29;;;;;;;;;;;21.50;39.40;;;;;;491120;242;1127;-39
2022/04/15 07:49:31;;;;;;;;;;;21.60;39.40;;;;;;491011;242;1224;-39
2022/04/15 07:51:32;;;;;;;;;;;21.60;39.50;;;;;;490728;242;1264;-40
2022/04/15 07:53:33;;;;;;;;;;;21.60;39.50;;;;;;491220;242;2132;-39
2022/04/15 07:55:35;;;;;;;;;;;21.50;39.40;;;;;;491210;242;1056;-40
2022/04/15 07:57:36;;;;;;;;;;;21.50;39.50;;;;;;490719;242;1018;-40
2022/04/15 07:59:37;;;;;;;;;;;21.50;39.60;;;;;;490755;242;1069;-40
2022/04/15 08:01:39;;;;;;;;;;;21.60;39.50;;;;;;490654;242;1150;-40
2022/04/15 08:03:40;;;;;;;;;;;21.60;39.50;;;;;;491185;242;1099;-40
2022/04/15 08:05:42;;;;;;;;;;;21.60;39.50;;;;;;490761;242;1169;-40
2022/04/15 08:07:43;;;;;;;;;;;21.50;39.40;;;;;;491179;242;1080;-40
2022/04/15 08:09:44;;;;;;;;;;;21.50;39.50;;;;;;491082;242;994;-40
2022/04/15 08:11:46;;;;;;;;;;;21.60;39.60;;;;;;491173;242;2121;-40
2022/04/15 08:13:47;;;;;;;;;;;21.50;39.50;;;;;;491206;242;1193;-40
2022/04/15 08:15:50;;;;;;;;;;;21.50;39.60;;;;;;491205;242;1029;-40
2022/04/15 08:17:50;;;;;;;;;;;21.50;39.60;;;;;;491140;242;2155;-40
2022/04/15 08:19:51;;;;;;;;;;;21.50;39.60;;;;;;490735;242;1177;-40
2022/04/15 08:21:53;;;;;;;;;;;21.50;39.60;;;;;;491150;242;1067;-40
2022/04/15 08:23:54;;;;;;;;;;;21.50;39.60;;;;;;490790;242;1002;-39
2022/04/15 08:25:55;;;;;;;;;;;21.50;39.60;;;;;;491163;242;1070;-40
2022/04/15 08:27:57;;;;;;;;;;;21.50;39.60;;;;;;490965;242;945;-40
2022/04/15 08:29:58;;;;;;;;;;;21.50;39.70;;;;;;491202;242;1102;-40
2022/04/15 08:31:59;;;;;;;;;;;21.50;39.80;;;;;;490805;242;2146;-40
2022/04/15 08:34:02;;;;;;;;;;;21.60;39.70;;;;;;490746;242;1066;-40
2022/04/15 08:36:02;;;;;;;;;;;21.50;39.60;;;;;;490681;243;2500;-40
2022/04/15 08:38:03;;;;;;;;;;;21.50;39.70;;;;;;491180;242;1058;-40
2022/04/15 08:40:05;;;;;;;;;;;21.50;39.60;;;;;;491218;242;1325;-40
2022/04/15 08:42:06;;;;;;;;;;;21.60;39.70;;;;;;491169;242;1039;-40
2022/04/15 08:44:07;;;;;;;;;;;21.50;39.70;;;;;;490768;242;1050;-40
2022/04/15 08:46:09;;;;;;;;;;;21.50;39.70;;;;;;490707;242;1160;-40
2022/04/15 08:48:10;;;;;;;;;;;21.50;39.80;;;;;;491201;242;1074;-40
2022/04/15 08:50:12;;;;;;;;;;;21.50;39.80;;;;;;486827;242;1349;-40
2022/04/15 08:52:13;;;;;;;;;;;21.50;39.80;;;;;;483483;246;2124;-40
2022/04/15 08:54:14;;;;;;;;;;;21.60;39.80;;;;;;483719;245;1045;-40
2022/04/15 08:56:16;;;;;;;;;;;21.50;39.80;;;;;;483700;245;1062;-40
2022/04/15 08:58:17;;;;;;;;;;;21.50;39.80;;;;;;490376;243;1244;-40
2022/04/15 09:00:19;;;;;;;;;;;21.50;39.80;;;;;;490761;242;1045;-40
2022/04/15 09:02:20;;;;;;;;;;;21.50;39.80;;;;;;491121;242;1245;-40
2022/04/15 09:04:21;;;;;;;;;;;21.50;39.80;;;;;;491209;242;1064;-39
2022/04/15 09:06:22;;;;;;;;;;;21.50;39.90;;;;;;490773;242;1197;-40
2022/04/15 09:08:25;;;;;;;;;;;21.50;39.90;;;;;;491183;242;1051;-40
2022/04/15 09:10:26;;;;;;;;;;;21.50;39.90;;;;;;491189;242;1689;-39
2022/04/15 09:12:28;;;;;;;;;;;21.50;39.90;;;;;;491135;242;2196;-40
2022/04/15 09:14:28;;;;;;;;;;;21.50;39.80;;;;;;491101;242;2366;-40
2022/04/15 09:16:30;;;;;;;;;;;21.50;39.90;;;;;;490710;242;1025;-40
2022/04/15 09:18:32;;;;;;;;;;;21.60;39.90;;;;;;491204;242;1074;-40
2022/04/15 09:20:33;;;;;;;;;;;21.60;39.90;;;;;;491012;242;1198;-40
2022/04/15 09:22:34;;;;;;;;;;;21.50;39.90;;;;;;491184;242;1037;-40
2022/04/15 09:24:37;;;;;;;;;;;21.50;39.90;;;;;;491194;242;1346;-40
2022/04/15 09:26:37;;;;;;;;;;;21.50;39.90;;;;;;490894;242;2193;-40
2022/04/15 09:28:39;;;;;;;;;;;21.50;39.90;;;;;;490739;242;1262;-40
2022/04/15 09:30:40;;;;;;;;;;;21.50;39.90;;;;;;490831;242;1077;-40
2022/04/15 09:32:42;;;;;;;;;;;21.50;39.90;;;;;;491153;242;2125;-39
2022/04/15 09:34:43;;;;;;;;;;;21.50;39.90;;;;;;491217;242;1031;-40
2022/04/15 09:36:44;;;;;;;;;;;21.50;39.90;;;;;;490760;242;1169;-40
2022/04/15 09:38:49;;;;;;;;;;;21.60;39.90;;;;;;491197;242;1086;-40
2022/04/15 09:40:47;;;;;;;;;;;21.50;39.90;;;;;;490905;242;1445;-40
2022/04/15 09:42:48;;;;;;;;;;;21.50;39.90;;;;;;491173;242;1057;-40
2022/04/15 09:44:50;;;;;;;;;;;21.50;39.90;;;;;;491217;242;1180;-40
2022/04/15 09:46:51;;;;;;;;;;;21.50;39.90;;;;;;491009;242;1137;-40
2022/04/15 09:48:52;;;;;;;;;;;21.50;39.90;;;;;;491180;242;1092;-40
2022/04/15 09:50:53;;;;;;;;;;;21.50;39.90;;;;;;487514;242;1308;-40
2022/04/15 09:52:55;;;;;;;;;;;21.50;39.90;;;;;;489066;243;2180;-39
2022/04/15 09:54:56;;;;;;;;;;;21.50;39.90;;;;;;491227;242;1226;-40
2022/04/15 09:56:58;;;;;;;;;;;21.50;39.80;;;;;;490694;242;1086;-40
2022/04/15 09:58:59;;;;;;;;;;;21.60;39.90;;;;;;491223;242;1034;-40
2022/04/15 10:01:00;;;;;;;;;;;21.60;39.80;;;;;;490856;242;1013;-40
2022/04/15 10:03:03;;;;;;;;;;;21.50;39.80;;;;;;491158;242;1224;-40
2022/04/15 10:05:03;;;;;;;;;;;21.50;39.90;;;;;;491113;243;2172;-40
2022/04/15 10:07:07;;;;;;;;;;;21.50;39.80;;;;;;490708;242;1366;-39
2022/04/15 10:09:06;;;;;;;;;;;21.50;39.80;;;;;;491084;242;2373;-40
2022/04/15 10:11:07;;;;;;;;;;;21.60;39.90;;;;;;491180;242;1048;-40
2022/04/15 10:13:08;;;;;;;;;;;21.50;39.80;;;;;;490913;242;2173;-40
2022/04/15 10:15:10;;;;;;;;;;;21.60;39.90;;;;;;490720;242;1276;-40
2022/04/15 10:17:12;;;;;;;;;;;21.60;39.80;;;;;;491207;242;1199;-40
2022/04/15 10:19:13;;;;;;;;;;;21.50;39.90;;;;;;491187;242;1084;-40
2022/04/15 10:21:15;;;;;;;;;;;21.50;39.80;;;;;;490632;242;1209;-40
2022/04/15 10:23:16;;;;;;;;;;;21.50;39.80;;;;;;490719;242;1019;-40
2022/04/15 10:25:17;;;;;;;;;;;21.50;39.80;;;;;;491184;242;1380;-40
2022/04/15 10:27:20;;;;;;;;;;;21.50;39.90;;;;;;491159;242;995;-40
2022/04/15 10:29:20;;;;;;;;;;;21.50;39.80;;;;;;491162;242;2208;-40
2022/04/15 10:31:24;;;;;;;;;;;21.50;39.80;;;;;;490696;242;1065;-40
2022/04/15 10:33:23;;;;;;;;;;;21.60;39.80;;;;;;491018;242;2273;-40
2022/04/15 10:35:24;;;;;;;;;;;21.50;39.70;;;;;;491195;242;1009;-40
2022/04/15 10:37:25;;;;;;;;;;;21.50;39.80;;;;;;490730;242;1609;-39
2022/04/15 10:39:27;;;;;;;;;;;21.50;39.80;;;;;;491152;242;1142;-40
2022/04/15 10:41:28;;;;;;;;;;;21.50;39.80;;;;;;491180;242;980;-40
2022/04/15 10:43:29;;;;;;;;;;;21.50;39.70;;;;;;491213;242;1063;-40
2022/04/15 10:45:34;;;;;;;;;;;21.60;39.80;;;;;;491199;242;1045;-40
2022/04/15 10:47:32;;;;;;;;;;;21.60;39.70;;;;;;490497;242;2203;-40
2022/04/15 10:49:33;;;;;;;;;;;21.60;39.70;;;;;;491211;242;1051;-40
2022/04/15 10:51:35;;;;;;;;;;;21.60;39.70;;;;;;490688;242;1273;-40
2022/04/15 10:53:36;;;;;;;;;;;21.50;39.70;;;;;;491159;242;2125;-40
2022/04/15 10:55:37;;;;;;;;;;;21.50;39.80;;;;;;491181;242;1133;-40
2022/04/15 10:57:40;;;;;;;;;;;21.50;39.80;;;;;;491118;242;1008;-40
2022/04/15 11:02:02;;;;;;;;;;;21.50;39.70;;;;;;491192;242;1158;-40
2022/04/15 11:04:02;;;;;;;;;;;21.50;39.70;;;;;;490662;242;2132;-40
2022/04/15 11:06:04;;;;;;;;;;;21.60;39.60;;;;;;491151;242;2531;-40
2022/04/15 11:08:04;;;;;;;;;;;21.60;39.70;;;;;;490789;242;2058;-40
2022/04/15 11:10:06;;;;;;;;;;;21.60;39.70;;;;;;491206;242;1096;-39
2022/04/15 11:12:09;;;;;;;;;;;21.60;39.60;;;;;;491168;242;1068;-40
2022/04/15 11:14:13;;;;;;;;;;;21.60;39.70;;;;;;490659;242;2360;-39
2022/04/15 11:16:11;;;;;;;;;;;21.60;39.70;;;;;;490436;242;2266;-39
2022/04/15 11:18:12;;;;;;;;;;;21.60;39.60;;;;;;490708;243;1711;-40
2022/04/15 11:20:13;;;;;;;;;;;21.50;39.60;;;;;;491228;242;1151;-40
2022/04/15 11:22:15;;;;;;;;;;;21.60;39.70;;;;;;490990;242;1238;-40
2022/04/15 11:24:16;;;;;;;;;;;21.50;39.70;;;;;;491217;242;1056;-40
2022/04/15 11:26:17;;;;;;;;;;;21.50;39.70;;;;;;490726;242;1988;-39
2022/04/15 11:28:19;;;;;;;;;;;21.50;39.70;;;;;;490739;242;1241;-39
2022/04/15 11:30:21;;;;;;;;;;;21.50;39.70;;;;;;491229;242;937;-40
2022/04/15 11:32:22;;;;;;;;;;;21.50;39.70;;;;;;490798;242;1067;-40
2022/04/15 11:34:23;;;;;;;;;;;21.50;39.60;;;;;;491210;242;2117;-40
2022/04/15 11:36:25;;;;;;;;;;;21.60;39.60;;;;;;491141;242;1320;-40
2022/04/15 11:38:26;;;;;;;;;;;21.50;39.60;;;;;;490791;242;1162;-40
2022/04/15 11:40:28;;;;;;;;;;;21.50;39.60;;;;;;491182;242;1046;-40
2022/04/15 11:42:29;;;;;;;;;;;21.50;39.60;;;;;;491201;242;1090;-40
2022/04/15 11:44:30;;;;;;;;;;;21.50;39.50;;;;;;491228;242;1084;-40
2022/04/15 11:46:32;;;;;;;;;;;21.60;39.60;;;;;;491195;242;1116;-40
2022/04/15 11:48:33;;;;;;;;;;;21.50;39.50;;;;;;491227;242;1047;-39
2022/04/15 11:50:34;;;;;;;;;;;21.50;39.60;;;;;;490745;242;1401;-40
2022/04/15 11:52:36;;;;;;;;;;;21.50;39.60;;;;;;491005;242;1370;-40
2022/04/15 11:54:38;;;;;;;;;;;21.50;39.50;;;;;;491204;242;2114;-39
2022/04/15 11:56:38;;;;;;;;;;;21.50;39.50;;;;;;491178;242;2247;-39
2022/04/15 11:58:40;;;;;;;;;;;21.60;39.60;;;;;;491223;242;1048;-40